Maribor, Slovenia

10:05 AM CEST on October 22, 2014 (GMT +0200)
Maribor | Change Station
CLOSE
Current Station
Airport
Location: Maribor,
Elevation: 869 ft
Nearby Weather Stations

Elev 869 ft 46.48 °N, 15.68 °E | Updated 5 minutes ago

Overcast
Overcast
41 °F
Feels Like 36 °F
N
7
Wind Variable Wind from SW

Today
High -- | Low -- °F
--% Chance of Precip.
Yesterday
High -- | Low -- °F
Precip. -- in
7:24 AM 5:58 PM
Waning Crescent, 3% visible
Pressure 29.77 in
Visibility 6.2 miles
Clouds Few 1000 ft
Scattered Clouds 4000 ft
Overcast 7000 ft
Windchill 36 °F
Dew Point 39 °F
Humidity 93%
Rainfall 0.00 in
Snow Depth Not available.
UV 1 out of 12
Pollen Not available.
Air Quality Not available.
Flu Activity Not available.
METAR LJMB 220800Z 22006KT 9999 FEW010 SCT040 OVC070 05/04 Q1008

More Conditions Fewer Conditions

Pressure 29.77 in
Visibility 6.2 miles
Clouds Few 1000 ft
Scattered Clouds 4000 ft
Overcast 7000 ft
Windchill 36 °F
Dew Point 39 °F
Humidity 93%
Rainfall 0.00 in
Snow Depth Not available.
UV 1 out of 12
Pollen Not available.
Air Quality Not available.
Flu Activity Not available.
METAR LJMB 220800Z 22006KT 9999 FEW010 SCT040 OVC070 05/04 Q1008

More Conditions Fewer Conditions

10-Day Weather Forecast

Almanac

Astronomy

Oct. 22, 2014 Rise Set
Actual Time 7:24 AM CEST 5:58 PM CEST
Civil Twilight 6:53 AM CEST 6:29 PM CEST
Nautical Twilight 6:18 AM CEST 7:04 PM CEST
Astronomical Twilight 5:43 AM CEST 7:39 PM CEST
Moon 5:43 AM CEST 5:19 PM CEST
Length of Visible Light 11h 36m
Length of Day
10h 34m
Tomorrow will be 3m 7s shorter.
Waning Crescent, 3% of the Moon is Illuminated
Today
Waning Crescent
Oct 23
New
Oct 30
First Quarter
Nov 6
Full
Nov 14
Last Quarter

Yesterday's Extremes

Country Highs Country Lows

Community

WunderPhotos

Upload Photos

1,763,889 photos uploaded!

Nearby

Snow Depth

Not available.

Earthquake Activity

City Distance Mag. Time & Date
No recent earthquake activity has been reported nearby.
Minimum magnitude displayed is 2.5.

Coastal Water Temperatures

Place Temperature
No Stations Reporting

Nearby Weather Stations